Time;durP1;ratioP1;P1;durP2;ratioP2;P2;SDS_P1;SDS_P2;PMS_P1;PMS_P2;Temp;Humidity;BMP_temperature;BMP_pressure;BME280_temperature;BME280_humidity;BME280_pressure;Samples;Min_cycle;Max_cycle;Signal;HPM_P1;HPM_P2
2022/02/20 00:01:54;;;;;;;5.60;2.00;;;6.60;80.70;;;;;;4214089;28;20101;-56
2022/02/20 00:03:55;;;;;;;5.73;2.57;;;6.50;80.70;;;;;;4217003;28;20028;-64
2022/02/20 00:05:56;;;;;;;3.83;2.00;;;6.60;80.60;;;;;;4217037;28;20028;-68
2022/02/20 00:07:57;;;;;;;4.37;1.77;;;6.50;80.70;;;;;;4214831;28;20078;-60
2022/02/20 00:09:58;;;;;;;4.00;2.30;;;6.50;80.90;;;;;;4201587;28;20102;-43
2022/02/20 00:11:59;;;;;;;3.90;1.70;;;6.50;80.80;;;;;;4281942;22;20142;-59
2022/02/20 00:14:01;;;;;;;4.90;2.13;;;6.40;80.70;;;;;;4196314;28;20447;-53
2022/02/20 00:16:02;;;;;;;4.37;1.90;;;6.40;81.30;;;;;;4197418;28;20541;-47
2022/02/20 00:18:03;;;;;;;5.57;1.87;;;6.40;80.90;;;;;;4199056;28;20131;-46
2022/02/20 00:20:05;;;;;;;4.43;2.07;;;6.40;81.00;;;;;;4199127;28;20050;-57
2022/02/20 00:22:06;;;;;;;2.53;1.30;;;6.40;81.00;;;;;;4201634;28;20054;-50
2022/02/20 00:24:08;;;;;;;3.20;1.67;;;6.40;81.00;;;;;;4194229;28;20028;-61
2022/02/20 00:26:09;;;;;;;2.77;1.60;;;6.40;81.10;;;;;;4185383;28;20086;-55
2022/02/20 00:28:11;;;;;;;4.03;1.40;;;6.40;81.20;;;;;;4182948;28;20044;-63
2022/02/20 00:30:12;;;;;;;9.17;2.00;;;6.30;81.30;;;;;;4186013;28;20083;-57
2022/02/20 00:32:13;;;;;;;6.27;1.57;;;6.30;81.30;;;;;;4187661;28;20059;-69
2022/02/20 00:34:14;;;;;;;5.17;1.83;;;6.40;81.40;;;;;;4181763;28;20032;-52
2022/02/20 00:36:15;;;;;;;4.97;2.03;;;6.30;81.30;;;;;;4179160;28;20029;-63
2022/02/20 00:38:17;;;;;;;7.00;1.73;;;6.30;81.30;;;;;;4178996;28;20033;-58
2022/02/20 00:40:18;;;;;;;3.97;1.60;;;6.30;81.30;;;;;;4181701;28;20484;-62
2022/02/20 00:42:20;;;;;;;4.93;2.10;;;6.30;81.30;;;;;;4176951;28;20028;-52
2022/02/20 00:44:21;;;;;;;5.90;2.00;;;6.30;81.20;;;;;;4176398;28;20062;-47
2022/02/20 00:46:22;;;;;;;4.33;1.80;;;6.30;81.20;;;;;;4184618;28;20037;-72
2022/02/20 00:48:23;;;;;;;3.17;1.77;;;6.30;81.20;;;;;;4175201;28;20095;-56
2022/02/20 00:50:26;;;;;;;3.27;1.50;;;6.30;81.20;;;;;;4175519;28;20083;-48
2022/02/20 00:52:27;;;;;;;3.43;1.60;;;6.20;81.30;;;;;;4177394;28;20029;-53
2022/02/20 00:54:28;;;;;;;4.03;1.67;;;6.20;81.20;;;;;;4184549;28;20091;-58
2022/02/20 00:56:29;;;;;;;6.70;2.43;;;6.10;81.20;;;;;;4193490;28;20036;-45
2022/02/20 00:58:30;;;;;;;5.87;2.43;;;6.10;81.20;;;;;;4195383;28;20074;-55
2022/02/20 01:00:32;;;;;;;5.23;1.90;;;6.10;81.20;;;;;;4194084;28;21215;-62
2022/02/20 01:02:33;;;;;;;5.40;2.00;;;6.10;81.20;;;;;;4192506;28;20505;-65
2022/02/20 01:04:34;;;;;;;3.27;1.90;;;6.10;81.30;;;;;;4194120;28;20040;-66
2022/02/20 01:06:35;;;;;;;3.97;1.90;;;6.00;81.40;;;;;;4192428;28;20024;-63
2022/02/20 01:08:37;;;;;;;3.13;1.67;;;6.00;81.30;;;;;;4192950;28;20041;-59
2022/02/20 01:10:38;;;;;;;4.37;1.90;;;6.00;81.60;;;;;;4174052;28;20293;-63
2022/02/20 01:12:39;;;;;;;4.77;1.80;;;5.90;81.60;;;;;;4192511;28;20056;-56
2022/02/20 01:14:42;;;;;;;4.50;2.30;;;5.90;81.80;;;;;;4196792;28;20296;-70
2022/02/20 01:16:44;;;;;;;4.00;1.87;;;5.80;81.90;;;;;;4192450;28;21053;-60
2022/02/20 01:18:45;;;;;;;13.63;2.37;;;5.90;82.00;;;;;;4194128;28;20046;-60
2022/02/20 01:20:46;;;;;;;10.53;2.47;;;5.80;81.90;;;;;;4195099;28;20265;-65
2022/02/20 01:22:47;;;;;;;4.83;2.23;;;5.80;81.90;;;;;;4193866;28;20032;-54
2022/02/20 01:24:48;;;;;;;4.73;2.07;;;5.70;82.00;;;;;;4191365;28;20261;-56
2022/02/20 01:26:49;;;;;;;3.93;2.17;;;5.70;82.20;;;;;;4196355;28;20024;-44
2022/02/20 01:28:51;;;;;;;5.40;2.57;;;5.60;82.40;;;;;;4194722;28;20343;-62
2022/02/20 01:30:52;;;;;;;5.83;2.50;;;5.60;82.60;;;;;;4193175;28;20350;-54
2022/02/20 01:32:53;;;;;;;7.27;2.50;;;5.60;82.60;;;;;;4176663;28;20699;-54
2022/02/20 01:34:54;;;;;;;6.20;2.20;;;5.60;82.90;;;;;;4194274;28;20444;-59
2022/02/20 01:36:55;;;;;;;3.10;1.70;;;5.60;82.80;;;;;;4193927;28;20265;-47
2022/02/20 01:38:56;;;;;;;7.07;2.20;;;5.60;82.90;;;;;;4196210;28;20265;-66
2022/02/20 01:40:58;;;;;;;3.43;1.93;;;5.60;82.90;;;;;;4193232;28;20265;-64
2022/02/20 01:43:00;;;;;;;3.73;1.57;;;5.60;82.90;;;;;;4192601;28;20086;-62
2022/02/20 01:45:02;;;;;;;5.53;1.83;;;5.60;82.80;;;;;;4164507;28;20283;-58
2022/02/20 01:47:06;;;;;;;9.33;2.70;;;5.60;82.80;;;;;;4181489;28;20097;-61
2022/02/20 01:49:07;;;;;;;4.43;1.70;;;5.60;82.70;;;;;;4178120;28;20094;-53
2022/02/20 01:51:08;;;;;;;3.20;1.53;;;5.60;82.80;;;;;;4196286;28;20331;-62
2022/02/20 01:53:10;;;;;;;4.07;1.73;;;5.50;83.00;;;;;;4199298;28;20269;-66
2022/02/20 01:55:12;;;;;;;5.13;1.80;;;5.50;83.20;;;;;;4199417;28;20265;-58
2022/02/20 01:57:13;;;;;;;5.23;1.83;;;5.50;83.40;;;;;;4201826;28;20261;-67
2022/02/20 01:59:16;;;;;;;5.40;1.83;;;5.50;83.50;;;;;;4198950;28;20954;-58
2022/02/20 02:01:17;;;;;;;4.50;1.90;;;5.40;83.80;;;;;;4184241;28;20270;-69
2022/02/20 02:03:20;;;;;;;6.40;1.77;;;5.40;83.80;;;;;;4197935;28;20928;-46
2022/02/20 02:05:22;;;;;;;7.53;1.80;;;5.40;84.10;;;;;;4198963;28;20339;-65
2022/02/20 02:07:23;;;;;;;3.53;1.60;;;5.40;84.20;;;;;;4198050;28;20371;-55
2022/02/20 02:09:24;;;;;;;3.43;1.60;;;5.40;84.30;;;;;;4198681;28;20304;-71
2022/02/20 02:11:26;;;;;;;4.80;1.47;;;5.30;84.40;;;;;;4198107;28;20277;-54
2022/02/20 02:13:28;;;;;;;4.20;1.77;;;5.30;84.40;;;;;;4196232;28;20265;-84
2022/02/20 02:17:33;;;;;;;4.63;1.40;;;5.30;84.50;;;;;;4167402;22;20303;-67
2022/02/20 02:19:34;;;;;;;4.67;1.50;;;5.20;84.40;;;;;;4159382;28;20271;-57
2022/02/20 02:21:35;;;;;;;1.97;1.13;;;5.20;84.20;;;;;;4162387;28;20263;-69
2022/02/20 02:23:36;;;;;;;3.53;1.20;;;5.20;84.00;;;;;;4159385;28;20267;-58
2022/02/20 02:25:39;;;;;;;3.37;1.30;;;5.30;83.90;;;;;;4166141;28;20328;-51
2022/02/20 02:27:40;;;;;;;7.00;2.03;;;5.20;83.90;;;;;;4176571;28;20254;-66
2022/02/20 02:29:43;;;;;;;8.53;2.77;;;5.20;84.30;;;;;;4174681;28;20324;-59
2022/02/20 02:31:44;;;;;;;10.13;2.63;;;5.10;84.60;;;;;;4175317;28;20266;-60
2022/02/20 02:33:45;;;;;;;6.03;3.03;;;5.10;84.90;;;;;;4177929;28;20686;-63
2022/02/20 02:35:47;;;;;;;7.67;2.60;;;5.00;85.30;;;;;;4174859;28;20274;-62
2022/02/20 02:37:48;;;;;;;8.33;3.13;;;4.90;85.40;;;;;;4158401;28;20747;-63
2022/02/20 02:39:49;;;;;;;7.50;2.93;;;4.90;85.70;;;;;;4161937;28;20674;-47
2022/02/20 02:41:50;;;;;;;8.10;2.67;;;4.90;85.80;;;;;;4157568;28;20325;-53
2022/02/20 02:43:51;;;;;;;5.63;2.73;;;4.80;86.50;;;;;;4158574;28;20333;-50
2022/02/20 02:45:53;;;;;;;7.37;2.57;;;4.80;86.00;;;;;;4157880;28;20266;-64
2022/02/20 02:47:54;;;;;;;5.77;2.80;;;4.70;86.00;;;;;;4158178;28;20324;-47
2022/02/20 02:49:55;;;;;;;6.47;3.00;;;4.70;86.00;;;;;;4158354;28;20380;-55
2022/02/20 02:51:56;;;;;;;6.77;2.27;;;4.70;85.90;;;;;;4158470;28;20762;-49
2022/02/20 02:53:58;;;;;;;9.90;2.57;;;4.70;85.80;;;;;;4158720;28;20743;-47
2022/02/20 02:55:59;;;;;;;6.67;3.10;;;4.70;85.80;;;;;;4157782;28;20251;-59
2022/02/20 02:58:00;;;;;;;9.20;2.67;;;4.60;85.90;;;;;;4159541;28;20270;-50
2022/02/20 03:00:03;;;;;;;6.70;2.77;;;4.60;86.50;;;;;;4161431;28;20313;-59
2022/02/20 03:02:04;;;;;;;7.33;3.43;;;4.50;86.90;;;;;;4159802;28;20282;-58
2022/02/20 03:04:06;;;;;;;8.50;2.93;;;4.40;87.20;;;;;;4158318;28;20345;-63
2022/02/20 03:06:09;;;;;;;19.20;3.33;;;4.40;87.60;;;;;;4161060;28;20754;-47
2022/02/20 03:08:10;;;;;;;8.53;3.70;;;4.30;88.30;;;;;;4175250;28;20246;-52
2022/02/20 03:10:11;;;;;;;12.13;4.40;;;4.20;89.10;;;;;;4175173;28;20428;-57
2022/02/20 03:12:12;;;;;;;11.60;4.07;;;4.10;89.40;;;;;;4175813;28;20319;-57
2022/02/20 03:14:13;;;;;;;13.63;4.10;;;4.00;89.60;;;;;;4174644;28;20266;-49
2022/02/20 03:16:15;;;;;;;9.37;3.43;;;3.90;89.90;;;;;;4175895;28;20835;-65
2022/02/20 03:18:16;;;;;;;16.37;3.97;;;3.90;90.00;;;;;;4156040;28;20349;-47
2022/02/20 03:20:17;;;;;;;11.53;3.73;;;3.90;90.00;;;;;;4174378;28;20262;-61
2022/02/20 03:22:19;;;;;;;9.03;3.40;;;3.90;90.20;;;;;;4177126;28;20768;-60
2022/02/20 03:24:20;;;;;;;8.27;3.67;;;3.80;90.50;;;;;;4174091;28;20266;-48
2022/02/20 03:26:22;;;;;;;9.80;3.97;;;3.80;90.50;;;;;;4172423;28;20266;-62
2022/02/20 03:28:23;;;;;;;10.60;4.10;;;3.70;90.70;;;;;;4175753;28;20850;-47
2022/02/20 03:30:24;;;;;;;11.50;3.87;;;3.70;91.00;;;;;;4174831;28;20298;-49
2022/02/20 03:32:25;;;;;;;7.40;3.13;;;3.60;90.90;;;;;;4173618;28;20270;-41
2022/02/20 03:34:26;;;;;;;11.87;4.53;;;3.60;90.90;;;;;;4176270;28;20687;-55
2022/02/20 03:36:28;;;;;;;8.97;4.30;;;3.50;91.10;;;;;;4173330;28;20262;-57
2022/02/20 03:38:29;;;;;;;9.17;3.77;;;3.50;91.20;;;;;;4159138;28;20314;-53
2022/02/20 03:40:30;;;;;;;5.93;3.20;;;3.50;91.20;;;;;;4175354;28;20270;-51
2022/02/20 03:42:33;;;;;;;15.33;3.93;;;3.50;91.30;;;;;;4169952;28;20275;-68
2022/02/20 03:44:34;;;;;;;10.37;4.17;;;3.50;91.40;;;;;;4157402;28;20701;-52
2022/02/20 03:46:35;;;;;;;7.03;3.07;;;3.50;91.40;;;;;;4157474;28;20275;-60
2022/02/20 03:48:36;;;;;;;9.47;3.50;;;3.50;91.50;;;;;;4157088;28;20301;-60
2022/02/20 03:50:38;;;;;;;8.63;2.80;;;3.50;91.30;;;;;;4157916;28;20294;-57
2022/02/20 03:52:40;;;;;;;9.40;3.13;;;3.50;91.20;;;;;;4166916;28;20672;-54
2022/02/20 03:54:41;;;;;;;11.23;4.50;;;3.50;91.20;;;;;;4174288;28;21234;-52
2022/02/20 03:56:42;;;;;;;9.20;3.43;;;3.40;91.30;;;;;;4177738;28;20274;-59
2022/02/20 03:58:43;;;;;;;7.00;3.10;;;3.40;91.00;;;;;;4185869;22;20875;-53
2022/02/20 04:00:44;;;;;;;6.93;2.90;;;3.50;90.90;;;;;;4174025;28;20839;-62
2022/02/20 04:02:45;;;;;;;4.77;2.50;;;3.40;90.80;;;;;;4177300;28;20270;-53
2022/02/20 04:04:47;;;;;;;6.23;2.60;;;3.40;90.90;;;;;;4175169;28;20351;-65
2022/02/20 04:06:48;;;;;;;11.40;3.30;;;3.40;91.20;;;;;;4174483;28;20274;-58
2022/02/20 04:08:49;;;;;;;8.13;2.97;;;3.10;92.10;;;;;;4176399;28;20263;-65
2022/02/20 04:10:50;;;;;;;11.20;2.90;;;3.00;92.20;;;;;;4157944;28;20294;-54
2022/02/20 04:12:52;;;;;;;6.53;2.90;;;2.90;92.30;;;;;;4162003;28;20285;-47
2022/02/20 04:14:53;;;;;;;6.33;2.00;;;2.90;92.50;;;;;;4161922;28;20274;-53
2022/02/20 04:16:54;;;;;;;6.57;2.03;;;2.90;92.50;;;;;;4156597;28;20267;-50
2022/02/20 04:18:55;;;;;;;11.83;2.77;;;2.90;92.70;;;;;;4176007;28;20340;-58
2022/02/20 04:20:57;;;;;;;6.63;3.40;;;2.90;93.00;;;;;;4175043;28;20795;-57
2022/02/20 04:22:58;;;;;;;14.97;4.17;;;2.80;93.00;;;;;;4157336;28;20337;-62
2022/02/20 04:24:59;;;;;;;8.50;3.23;;;2.80;92.90;;;;;;4176142;28;20655;-54
2022/02/20 04:27:00;;;;;;;10.53;3.73;;;2.80;92.80;;;;;;4176663;28;20328;-55
2022/02/20 04:29:01;;;;;;;13.07;4.30;;;2.70;92.90;;;;;;4174588;28;20285;-46
2022/02/20 04:31:02;;;;;;;11.43;3.57;;;2.70;93.30;;;;;;4158012;28;20372;-51
2022/02/20 04:33:04;;;;;;;11.93;3.70;;;2.60;92.90;;;;;;4179020;28;20262;-60
2022/02/20 04:35:05;;;;;;;7.10;3.30;;;2.60;92.90;;;;;;4177437;28;20328;-62
2022/02/20 04:37:06;;;;;;;10.03;3.37;;;2.60;92.90;;;;;;4163989;28;20259;-83
2022/02/20 04:39:09;;;;;;;11.53;3.77;;;2.60;92.90;;;;;;4179647;28;20254;-63
2022/02/20 04:41:10;;;;;;;9.23;3.30;;;2.50;92.90;;;;;;4181364;28;20257;-49
2022/02/20 04:43:11;;;;;;;12.30;3.80;;;2.50;93.00;;;;;;4178262;28;20331;-57
2022/02/20 04:45:12;;;;;;;10.33;3.87;;;2.50;93.10;;;;;;4161681;28;20825;-49
2022/02/20 04:47:14;;;;;;;9.37;3.40;;;2.50;93.20;;;;;;4171003;28;20301;-50
2022/02/20 04:49:15;;;;;;;12.90;3.70;;;2.50;93.30;;;;;;4162631;28;20291;-69
2022/02/20 04:51:16;;;;;;;10.20;4.43;;;2.50;93.30;;;;;;4167476;28;20282;-51
2022/02/20 04:53:17;;;;;;;12.57;3.60;;;2.50;93.50;;;;;;4163861;28;20309;-57
2022/02/20 04:55:18;;;;;;;9.63;3.57;;;2.50;93.60;;;;;;4164394;28;20262;-46
2022/02/20 04:57:20;;;;;;;10.03;4.20;;;2.50;93.70;;;;;;4175131;28;20274;-65
2022/02/20 04:59:21;;;;;;;10.93;4.90;;;2.50;94.00;;;;;;4177822;28;20294;-46
2022/02/20 05:01:24;;;;;;;9.07;4.37;;;2.50;94.30;;;;;;4163533;28;20352;-58
2022/02/20 05:03:26;;;;;;;10.20;4.03;;;2.40;94.70;;;;;;4161393;28;20824;-62
2022/02/20 05:05:27;;;;;;;13.37;4.07;;;2.40;94.70;;;;;;4162149;28;20259;-66
2022/02/20 05:07:29;;;;;;;10.33;3.70;;;2.40;95.00;;;;;;4177821;28;20259;-56
2022/02/20 05:09:30;;;;;;;7.33;3.67;;;2.40;95.10;;;;;;4160758;28;20320;-63
2022/02/20 05:11:31;;;;;;;11.37;3.63;;;2.40;95.40;;;;;;4161948;28;20341;-62
2022/02/20 05:13:33;;;;;;;7.33;3.40;;;2.40;95.30;;;;;;4180366;28;20327;-64
2022/02/20 05:15:34;;;;;;;10.17;3.93;;;2.40;95.30;;;;;;4177801;28;20319;-47
2022/02/20 05:17:39;;;;;;;10.43;3.83;;;2.40;95.30;;;;;;4156658;28;20369;-59
2022/02/20 05:19:40;;;;;;;17.90;4.93;;;2.40;95.40;;;;;;4177908;28;20262;-59
2022/02/20 05:21:41;;;;;;;12.43;5.47;;;2.40;95.50;;;;;;4182980;28;20899;-56
2022/02/20 05:23:42;;;;;;;17.00;5.50;;;2.30;95.70;;;;;;4185756;28;20269;-47
2022/02/20 05:25:43;;;;;;;12.33;4.70;;;2.30;95.90;;;;;;4168581;28;20675;-59
2022/02/20 05:27:44;;;;;;;15.63;6.03;;;2.20;96.00;;;;;;4166794;28;20262;-62
2022/02/20 05:29:45;;;;;;;14.07;5.80;;;2.20;96.20;;;;;;4167680;28;20802;-52
2022/02/20 05:31:47;;;;;;;12.00;4.73;;;2.20;96.30;;;;;;4167204;28;20259;-62
2022/02/20 05:33:48;;;;;;;17.77;5.73;;;2.20;96.50;;;;;;4171522;28;20269;-63
2022/02/20 05:35:49;;;;;;;12.30;4.30;;;2.20;97.00;;;;;;4168486;28;20701;-64
2022/02/20 05:37:51;;;;;;;19.43;4.77;;;2.20;97.10;;;;;;4167929;28;20332;-62
2022/02/20 05:39:52;;;;;;;13.93;4.13;;;2.20;97.30;;;;;;4158970;28;20275;-54
2022/02/20 05:41:53;;;;;;;8.80;4.30;;;2.20;97.20;;;;;;4182272;28;20340;-54
2022/02/20 05:43:54;;;;;;;11.53;4.37;;;2.10;97.50;;;;;;4183559;28;20300;-64
2022/02/20 05:45:56;;;;;;;13.33;4.57;;;2.10;97.60;;;;;;4183639;28;20687;-55
2022/02/20 05:47:58;;;;;;;8.50;3.97;;;2.20;97.60;;;;;;4165220;28;20275;-68
2022/02/20 05:49:59;;;;;;;9.47;3.87;;;2.20;97.70;;;;;;4165252;28;20325;-66
2022/02/20 05:52:00;;;;;;;9.77;4.40;;;2.20;97.80;;;;;;4166302;28;20270;-40
2022/02/20 05:54:01;;;;;;;9.33;4.20;;;2.20;98.30;;;;;;4165983;28;20270;-63
2022/02/20 05:56:03;;;;;;;15.87;6.27;;;2.20;98.50;;;;;;4165723;28;20282;-65
2022/02/20 05:58:04;;;;;;;17.30;6.67;;;2.10;98.60;;;;;;4163472;28;20689;-67
2022/02/20 06:00:06;;;;;;;12.70;4.47;;;2.10;98.80;;;;;;4165613;28;20336;-83
2022/02/20 06:02:07;;;;;;;13.63;4.43;;;2.10;98.90;;;;;;4164265;28;20309;-65
2022/02/20 06:04:08;;;;;;;10.83;4.33;;;2.10;98.80;;;;;;4167122;28;20258;-63
2022/02/20 06:06:09;;;;;;;20.23;6.03;;;2.20;98.80;;;;;;4165652;28;20270;-64
2022/02/20 06:08:10;;;;;;;14.87;6.37;;;2.20;98.70;;;;;;4166525;28;20267;-63
2022/02/20 06:10:12;;;;;;;20.53;6.33;;;2.30;98.80;;;;;;4165476;28;20665;-66
2022/02/20 06:12:13;;;;;;;11.37;5.13;;;2.30;99.10;;;;;;4180834;28;20266;-61
2022/02/20 06:14:14;;;;;;;13.40;4.33;;;2.40;99.00;;;;;;4182966;28;20266;-62
2022/02/20 06:16:16;;;;;;;12.97;4.67;;;2.40;98.80;;;;;;4184070;28;20273;-45
2022/02/20 06:18:17;;;;;;;14.10;4.33;;;2.40;98.70;;;;;;4185700;28;20925;-58
2022/02/20 06:20:18;;;;;;;9.00;4.30;;;2.50;98.70;;;;;;4191952;28;20262;-69
2022/02/20 06:22:20;;;;;;;10.47;4.23;;;2.60;98.60;;;;;;4193485;28;20293;-70
2022/02/20 06:24:27;;;;;;;12.57;4.90;;;2.60;98.60;;;;;;4196801;28;20242;-64
2022/02/20 06:26:28;;;;;;;9.60;4.37;;;2.50;98.70;;;;;;4172811;28;20279;-58
2022/02/20 06:28:35;;;;;;;12.87;4.63;;;2.50;98.90;;;;;;4189181;28;20242;-67
2022/02/20 06:30:46;;;;;;;15.97;5.70;;;2.40;99.00;;;;;;4174362;28;20305;-58
2022/02/20 06:32:48;;;;;;;13.17;6.17;;;2.40;99.20;;;;;;4183530;28;21049;-53
2022/02/20 06:34:49;;;;;;;17.63;6.37;;;2.40;99.50;;;;;;4179530;28;20270;-62
2022/02/20 06:36:50;;;;;;;14.80;6.07;;;2.40;99.50;;;;;;4180018;28;20665;-56
2022/02/20 06:38:53;;;;;;;20.43;7.40;;;2.40;99.40;;;;;;4178285;28;20429;-53
2022/02/20 06:40:54;;;;;;;15.50;5.60;;;2.50;99.40;;;;;;4180672;28;20556;-47
2022/02/20 06:42:55;;;;;;;17.80;6.10;;;2.60;99.30;;;;;;4179336;28;20315;-54
2022/02/20 06:44:56;;;;;;;18.47;6.23;;;2.70;99.00;;;;;;4159797;28;20331;-50
2022/02/20 06:46:58;;;;;;;10.60;5.13;;;2.80;98.90;;;;;;4176722;28;20294;-56
2022/02/20 06:48:59;;;;;;;12.80;5.60;;;2.80;98.70;;;;;;4177786;28;20270;-60
2022/02/20 06:51:00;;;;;;;12.43;5.13;;;2.90;98.80;;;;;;4178920;28;20290;-57
2022/02/20 06:53:02;;;;;;;23.13;6.87;;;3.00;98.70;;;;;;4180597;28;20273;-46
2022/02/20 06:55:03;;;;;;;13.10;6.00;;;3.10;98.60;;;;;;4164069;28;20845;-57
2022/02/20 06:57:05;;;;;;;14.73;6.40;;;3.10;98.60;;;;;;4174581;28;20327;-51
2022/02/20 06:59:06;;;;;;;17.53;6.50;;;3.10;98.70;;;;;;4178010;28;20344;-52
2022/02/20 07:01:07;;;;;;;23.40;6.57;;;3.20;98.70;;;;;;4175860;28;20282;-58
2022/02/20 07:03:08;;;;;;;28.17;12.30;;;3.20;98.60;;;;;;4157724;28;20283;-72
2022/02/20 07:05:09;;;;;;;25.90;12.83;;;3.30;98.40;;;;;;4176931;28;20315;-53
2022/02/20 07:07:10;;;;;;;25.87;11.17;;;3.30;98.40;;;;;;4175623;28;20669;-62
2022/02/20 07:09:12;;;;;;;38.07;19.40;;;3.30;98.40;;;;;;4175323;28;20324;-60
2022/02/20 07:11:14;;;;;;;44.77;18.37;;;3.40;98.50;;;;;;4175578;28;20359;-59
2022/02/20 07:13:15;;;;;;;28.00;14.03;;;3.50;98.50;;;;;;4175823;28;20324;-48
2022/02/20 07:15:16;;;;;;;33.20;15.80;;;3.50;98.40;;;;;;4177389;28;20257;-69
2022/02/20 07:17:18;;;;;;;35.33;16.13;;;3.60;98.20;;;;;;4175475;28;20297;-46
2022/02/20 07:19:19;;;;;;;26.03;12.80;;;3.70;98.20;;;;;;4175606;28;20266;-58
2022/02/20 07:21:20;;;;;;;25.37;12.23;;;3.80;98.10;;;;;;4158908;28;20317;-58
2022/02/20 07:23:22;;;;;;;33.23;15.30;;;3.90;97.80;;;;;;4175039;28;20282;-53
2022/02/20 07:25:23;;;;;;;21.57;10.57;;;4.00;97.40;;;;;;4185733;28;20323;-56
2022/02/20 07:27:25;;;;;;;37.57;16.20;;;4.00;97.30;;;;;;4196321;28;20296;-75
2022/02/20 07:29:26;;;;;;;27.87;12.00;;;4.00;97.20;;;;;;4178150;28;20341;-49
2022/02/20 07:31:28;;;;;;;21.07;10.20;;;4.00;96.80;;;;;;4194545;28;20324;-66
2022/02/20 07:33:29;;;;;;;23.57;10.00;;;4.00;96.80;;;;;;4190232;28;20282;-59
2022/02/20 07:35:33;;;;;;;20.63;10.17;;;4.10;96.50;;;;;;4171514;28;20309;-66
2022/02/20 07:37:35;;;;;;;20.73;9.43;;;4.10;96.60;;;;;;4174903;28;20814;-64
2022/02/20 07:39:36;;;;;;;23.90;9.13;;;4.20;96.60;;;;;;4175189;28;20336;-69
2022/02/20 07:41:39;;;;;;;19.80;8.87;;;4.40;96.50;;;;;;4183425;28;20259;-71
2022/02/20 07:43:44;;;;;;;21.10;7.87;;;4.40;95.70;;;;;;4180941;28;20324;-68
2022/02/20 07:45:49;;;;;;;13.80;7.73;;;4.60;95.90;;;;;;4181003;28;20243;-69
2022/02/20 07:48:02;;;;;;;20.43;9.53;;;4.60;95.60;;;;;;4167169;28;20339;-64
2022/02/20 07:50:29;;;;;;;20.50;9.57;;;4.80;95.60;;;;;;4184323;28;20309;-66
2022/02/20 07:52:31;;;;;;;15.87;6.93;;;4.90;95.00;;;;;;4177241;28;20263;-64
2022/02/20 07:54:33;;;;;;;21.27;8.07;;;5.00;95.20;;;;;;4182802;28;20281;-68
2022/02/20 07:56:36;;;;;;;16.60;6.43;;;5.10;95.00;;;;;;4166778;28;20259;-70
2022/02/20 07:58:43;;;;;;;18.83;8.70;;;5.10;94.80;;;;;;4183497;28;20321;-71
2022/02/20 08:01:20;;;;;;;21.73;8.27;;;5.10;94.70;;;;;;4175554;28;20278;-67
2022/02/20 08:03:46;;;;;;;23.63;8.60;;;5.00;94.70;;;;;;4199801;28;20266;-71
2022/02/20 08:05:47;;;;;;;17.70;7.90;;;5.00;95.00;;;;;;4181753;28;20275;-73
2022/02/20 08:07:59;;;;;;;21.43;8.40;;;5.00;95.30;;;;;;4201449;28;20254;-68
2022/02/20 08:10:07;;;;;;;21.20;7.57;;;5.20;95.10;;;;;;4198201;28;20273;-69
2022/02/20 08:12:09;;;;;;;21.23;7.77;;;5.20;94.70;;;;;;4186449;28;20389;-73
2022/02/20 08:14:11;;;;;;;16.63;8.80;;;5.30;94.60;;;;;;4182432;28;20301;-68
2022/02/20 08:16:12;;;;;;;16.03;7.30;;;5.40;94.90;;;;;;4182661;28;20297;-67
2022/02/20 08:18:17;;;;;;;19.33;7.57;;;5.70;94.80;;;;;;4185258;28;20298;-72
2022/02/20 08:20:23;;;;;;;16.63;7.07;;;5.80;94.50;;;;;;4186885;28;20289;-67
2022/02/20 08:22:26;;;;;;;13.17;7.70;;;6.00;94.20;;;;;;4186453;28;20291;-68
2022/02/20 08:24:29;;;;;;;17.53;7.43;;;6.20;93.90;;;;;;4186200;28;20231;-60
2022/02/20 08:26:33;;;;;;;16.90;7.73;;;6.40;93.60;;;;;;4186351;28;20293;-65
2022/02/20 08:28:34;;;;;;;31.30;8.87;;;6.60;93.40;;;;;;4187687;28;20278;-67
2022/02/20 08:30:35;;;;;;;15.80;8.80;;;6.80;93.20;;;;;;4199839;28;20318;-71
2022/02/20 08:32:37;;;;;;;20.23;10.07;;;6.90;92.80;;;;;;4189456;28;20289;-63
2022/02/20 08:34:38;;;;;;;16.73;8.73;;;7.10;92.50;;;;;;4179683;28;20269;-51
2022/02/20 08:36:39;;;;;;;19.33;8.53;;;7.20;92.50;;;;;;4180106;28;20285;-60
2022/02/20 08:38:40;;;;;;;20.00;9.40;;;7.30;92.10;;;;;;4179843;28;20033;-45
2022/02/20 08:40:43;;;;;;;17.40;8.13;;;7.40;91.80;;;;;;4179525;28;20063;-52
2022/02/20 08:42:45;;;;;;;16.77;7.83;;;7.40;91.50;;;;;;4179096;28;20661;-76
2022/02/20 08:44:46;;;;;;;13.30;5.93;;;7.30;91.10;;;;;;4161025;28;20196;-82
2022/02/20 08:46:47;;;;;;;21.00;8.13;;;7.10;90.30;;;;;;4179231;28;20033;-74
2022/02/20 08:48:49;;;;;;;11.70;5.00;;;7.20;90.70;;;;;;4162985;28;20421;-60
2022/02/20 08:50:50;;;;;;;14.37;4.57;;;7.20;90.20;;;;;;4163089;28;20087;-77
2022/02/20 08:52:51;;;;;;;10.87;4.17;;;7.20;90.10;;;;;;4162843;28;20107;-91
2022/02/20 08:54:52;;;;;;;6.90;3.43;;;7.10;89.10;;;;;;4162773;28;20049;-80
2022/02/20 08:56:53;;;;;;;7.47;3.30;;;7.10;88.60;;;;;;4160749;28;20021;-59
2022/02/20 08:58:55;;;;;;;7.87;3.37;;;7.10;88.10;;;;;;4161580;28;20143;-66
2022/02/20 09:00:58;;;;;;;8.20;3.33;;;7.00;87.50;;;;;;4167731;28;20055;-84
2022/02/20 09:02:59;;;;;;;6.30;3.13;;;6.90;87.00;;;;;;4162511;28;20021;-90
2022/02/20 09:05:00;;;;;;;13.43;4.17;;;6.90;86.70;;;;;;4171479;28;20103;-73
2022/02/20 09:07:01;;;;;;;9.27;4.37;;;7.00;86.30;;;;;;4179923;28;20407;-80
2022/02/20 09:09:03;;;;;;;10.07;4.73;;;7.10;85.40;;;;;;4158953;28;20041;-87
2022/02/20 09:11:05;;;;;;;10.17;3.33;;;7.10;85.10;;;;;;4177834;28;20033;-65
2022/02/20 09:13:07;;;;;;;6.40;2.50;;;7.10;84.40;;;;;;4178403;28;20071;-89
2022/02/20 09:15:10;;;;;;;5.20;2.40;;;7.10;83.40;;;;;;4178480;28;20041;-72
2022/02/20 09:17:11;;;;;;;6.17;3.37;;;7.10;83.00;;;;;;4159360;28;20543;-84
2022/02/20 09:19:12;;;;;;;7.63;3.47;;;7.20;82.40;;;;;;4176311;28;20451;-78
2022/02/20 09:21:13;;;;;;;8.50;3.27;;;7.20;81.80;;;;;;4178461;28;20032;-76
2022/02/20 09:23:15;;;;;;;6.03;3.07;;;7.30;81.30;;;;;;4175807;28;20024;-60
2022/02/20 09:25:16;;;;;;;15.33;3.90;;;7.40;80.80;;;;;;4176928;28;20033;-70
2022/02/20 09:27:17;;;;;;;10.77;3.83;;;7.50;81.00;;;;;;4180532;28;20021;-70
2022/02/20 09:29:18;;;;;;;10.60;3.93;;;7.50;80.70;;;;;;4178676;28;20472;-54
2022/02/20 09:31:20;;;;;;;32.40;12.30;;;7.80;81.40;;;;;;4175994;28;20041;-57
2022/02/20 09:33:21;;;;;;;49.53;17.80;;;8.20;80.90;;;;;;4158681;28;20604;-55
2022/02/20 09:35:24;;;;;;;31.90;7.47;;;8.60;80.00;;;;;;4175573;28;20048;-81
2022/02/20 09:37:25;;;;;;;29.37;8.10;;;9.00;79.00;;;;;;4178426;28;20139;-66
2022/02/20 09:39:26;;;;;;;48.90;7.67;;;9.10;77.50;;;;;;4178638;28;20456;-74
2022/02/20 09:41:29;;;;;;;34.23;7.60;;;8.90;77.00;;;;;;4177567;28;20079;-62
2022/02/20 09:43:33;;;;;;;40.80;7.20;;;9.00;77.40;;;;;;4177028;28;20095;-63
2022/02/20 09:45:34;;;;;;;34.03;6.67;;;9.50;76.50;;;;;;4177485;28;20817;-54
2022/02/20 09:47:39;;;;;;;26.97;6.07;;;9.90;76.00;;;;;;4178974;28;20017;-71
2022/02/20 09:49:42;;;;;;;15.80;4.87;;;10.20;74.80;;;;;;4177766;28;20674;-83
2022/02/20 09:51:44;;;;;;;12.43;4.37;;;10.20;73.10;;;;;;4178069;28;20055;-59
2022/02/20 09:53:45;;;;;;;15.53;2.87;;;10.20;72.20;;;;;;4177123;28;20021;-83
2022/02/20 09:55:48;;;;;;;11.83;3.73;;;10.30;71.70;;;;;;4189092;23;20059;-63
2022/02/20 09:57:49;;;;;;;7.23;3.40;;;10.40;70.80;;;;;;4180750;28;20037;-76
2022/02/20 09:59:51;;;;;;;8.60;3.40;;;10.40;70.00;;;;;;4176828;28;20139;-66
2022/02/20 10:02:10;;;;;;;3.23;1.90;;;10.50;70.00;;;;;;4176988;28;20021;-72
2022/02/20 10:04:14;;;;;;;6.83;1.60;;;10.50;63.90;;;;;;4265091;22;20482;-69
2022/02/20 10:06:20;;;;;;;5.17;1.03;;;10.20;62.80;;;;;;4192083;28;20443;-51
2022/02/20 10:08:22;;;;;;;4.30;1.23;;;10.10;63.10;;;;;;4193749;28;20028;-50
2022/02/20 10:10:26;;;;;;;9.53;1.57;;;10.10;63.60;;;;;;4192153;28;20504;-70
2022/02/20 10:12:28;;;;;;;2.53;1.20;;;10.30;63.10;;;;;;4193133;28;20048;-57
2022/02/20 10:14:31;;;;;;;5.23;1.33;;;10.50;62.30;;;;;;4192102;28;20078;-63
2022/02/20 10:16:33;;;;;;;3.67;1.10;;;10.60;62.30;;;;;;4174161;28;20045;-59
2022/02/20 10:18:34;;;;;;;4.17;1.03;;;10.80;62.40;;;;;;4186975;28;20032;-63
2022/02/20 10:20:35;;;;;;;3.53;1.30;;;10.80;61.80;;;;;;4183267;28;20467;-87
2022/02/20 10:22:39;;;;;;;5.57;1.60;;;10.70;59.80;;;;;;4192487;28;20036;-68
2022/02/20 10:24:59;;;;;;;8.53;1.20;;;10.50;59.40;;;;;;4191331;28;20036;-57
2022/02/20 10:27:08;;;;;;;3.83;1.20;;;10.50;59.70;;;;;;4174895;28;20086;-65
2022/02/20 10:29:13;;;;;;;4.90;1.47;;;10.60;60.80;;;;;;4173719;28;20067;-59
2022/02/20 10:31:14;;;;;;;9.60;1.40;;;10.80;61.20;;;;;;4156426;28;20099;-47
2022/02/20 10:33:20;;;;;;;4.03;2.90;;;10.90;60.20;;;;;;4173527;28;20037;-54
2022/02/20 10:35:21;;;;;;;5.60;1.20;;;10.90;60.10;;;;;;4173744;28;20046;-55
2022/02/20 10:37:31;;;;;;;1.50;0.73;;;10.90;59.70;;;;;;4173416;28;20435;-61
2022/02/20 10:39:39;;;;;;;4.50;1.42;;;10.90;58.50;;;;;;4173660;28;20114;-58
2022/02/20 10:41:40;;;;;;;2.43;1.10;;;11.00;59.50;;;;;;4173493;28;20033;-64